createdAt,value
2018-11-10T00:01:22.253Z,105.83
2018-11-10T00:04:26.601Z,104.60
2018-11-10T00:07:30.849Z,96.30
2018-11-10T00:10:35.249Z,103.50
2018-11-10T00:13:39.508Z,98.03
2018-11-10T00:16:43.806Z,100.03
2018-11-10T00:19:48.092Z,108.70
2018-11-10T00:22:52.342Z,96.80
2018-11-10T00:25:56.622Z,101.30
2018-11-10T00:29:00.944Z,104.70
2018-11-10T00:32:05.834Z,99.50
2018-11-10T00:35:10.261Z,97.17
2018-11-10T00:38:14.526Z,97.03
2018-11-10T00:41:18.764Z,93.90
2018-11-10T00:44:23.036Z,98.90
2018-11-10T00:47:27.277Z,100.33
2018-11-10T00:50:31.549Z,101.00
2018-11-10T00:53:35.812Z,114.50
2018-11-10T00:56:40.103Z,97.90
2018-11-10T00:59:44.353Z,102.37
2018-11-10T01:02:48.596Z,94.93
2018-11-10T01:05:52.844Z,101.03
2018-11-10T01:08:57.126Z,99.13
2018-11-10T01:12:01.369Z,86.63
2018-11-10T01:15:07.537Z,97.60
2018-11-10T01:18:11.797Z,92.93
2018-11-10T01:21:16.071Z,94.43
2018-11-10T01:24:20.325Z,92.07
2018-11-10T01:27:24.611Z,97.20
2018-11-10T01:30:28.909Z,98.03
2018-11-10T01:33:33.248Z,90.87
2018-11-10T01:36:37.469Z,95.37
2018-11-10T01:39:41.723Z,96.83
2018-11-10T01:42:45.974Z,89.10
2018-11-10T01:45:50.203Z,90.43
2018-11-10T01:48:54.452Z,92.37
2018-11-10T01:51:58.701Z,98.80
2018-11-10T01:55:02.965Z,93.13
2018-11-10T01:58:09.334Z,90.83
2018-11-10T02:01:13.603Z,95.53
2018-11-10T02:04:17.846Z,98.23
2018-11-10T02:07:22.116Z,96.97
2018-11-10T02:10:26.347Z,93.33
2018-11-10T02:13:30.609Z,94.27
2018-11-10T02:16:34.906Z,98.43
2018-11-10T02:19:39.224Z,94.13
2018-11-10T02:22:43.487Z,94.47
2018-11-10T02:25:47.745Z,93.93
2018-11-10T02:28:52.031Z,99.40
2018-11-10T02:31:56.264Z,98.17
2018-11-10T02:35:00.590Z,103.20
2018-11-10T02:38:04.823Z,99.90
2018-11-10T02:41:09.073Z,97.50
2018-11-10T02:44:13.362Z,97.03
2018-11-10T02:47:17.605Z,93.73
2018-11-10T02:50:21.856Z,99.20
2018-11-10T02:53:26.138Z,109.90
2018-11-10T02:56:30.368Z,99.53
2018-11-10T02:59:34.639Z,108.13
2018-11-10T03:02:38.948Z,105.53
2018-11-10T03:05:43.261Z,103.40
2018-11-10T03:08:47.483Z,103.80
2018-11-10T03:11:51.734Z,106.53
2018-11-10T03:14:55.990Z,112.77
2018-11-10T03:18:00.328Z,116.53
2018-11-10T03:21:04.707Z,103.63
2018-11-10T03:24:09.069Z,106.20
2018-11-10T03:27:13.339Z,106.37
2018-11-10T03:30:17.588Z,109.50
2018-11-10T03:33:21.828Z,111.60
2018-11-10T03:36:26.097Z,112.33
2018-11-10T03:39:30.322Z,108.50
2018-11-10T03:42:34.564Z,106.63
2018-11-10T03:45:38.824Z,111.30
2018-11-10T03:48:43.124Z,105.30
2018-11-10T03:51:47.419Z,104.23
2018-11-10T03:54:51.673Z,107.17
2018-11-10T03:57:55.965Z,104.30
2018-11-10T04:01:00.216Z,102.30
2018-11-10T04:04:04.487Z,101.43
2018-11-10T04:07:08.724Z,96.87
2018-11-10T04:10:13.685Z,101.40
2018-11-10T04:13:17.969Z,109.70
2018-11-10T04:16:22.246Z,109.33
2018-11-10T04:19:26.497Z,102.50
2018-11-10T04:22:37.829Z,97.03
2018-11-10T04:25:42.108Z,102.70
2018-11-10T04:28:46.397Z,104.17
2018-11-10T04:31:51.464Z,103.10
2018-11-10T04:34:55.694Z,99.27
2018-11-10T04:37:59.931Z,92.77
2018-11-10T04:41:04.201Z,101.67
2018-11-10T04:44:08.469Z,100.53
2018-11-10T04:47:12.708Z,98.57
2018-11-10T04:50:16.985Z,96.93
2018-11-10T04:53:21.221Z,105.90
2018-11-10T04:56:25.448Z,96.80
2018-11-10T04:59:29.719Z,101.30
2018-11-10T05:02:33.968Z,102.33
2018-11-10T05:05:38.205Z,97.50
2018-11-10T05:08:42.454Z,95.80
2018-11-10T05:11:46.942Z,102.20
2018-11-10T05:14:51.226Z,91.67
2018-11-10T05:17:55.488Z,99.47
2018-11-10T05:20:59.748Z,91.40
2018-11-10T05:24:04.063Z,90.97
2018-11-10T05:27:08.304Z,99.37
2018-11-10T05:30:12.614Z,87.83
2018-11-10T05:33:16.907Z,95.13
2018-11-10T05:36:21.216Z,92.70
2018-11-10T05:39:25.469Z,85.33
2018-11-10T05:42:29.708Z,85.63
2018-11-10T05:45:33.954Z,84.30
2018-11-10T05:48:38.229Z,84.43
2018-11-10T05:51:42.465Z,95.37
2018-11-10T05:54:46.736Z,85.27
2018-11-10T05:57:51.003Z,87.67
2018-11-10T06:00:55.254Z,81.20
2018-11-10T06:03:59.515Z,81.40
2018-11-10T06:07:03.798Z,82.80
2018-11-10T06:10:09.693Z,75.57
2018-11-10T06:13:13.829Z,82.60
2018-11-10T06:16:18.047Z,76.90
2018-11-10T06:19:22.293Z,77.17
2018-11-10T06:22:26.521Z,67.53
2018-11-10T06:25:30.761Z,76.57
2018-11-10T06:28:34.989Z,74.83
2018-11-10T06:31:39.268Z,75.07
2018-11-10T06:34:43.526Z,75.53
2018-11-10T06:37:47.769Z,72.60
2018-11-10T06:40:52.039Z,68.37
2018-11-10T06:43:56.319Z,67.70
2018-11-10T06:47:00.572Z,64.83
2018-11-10T06:50:06.346Z,68.50
2018-11-10T06:53:10.595Z,64.50
2018-11-10T06:56:14.813Z,63.00
2018-11-10T06:59:19.032Z,65.17
2018-11-10T07:02:23.273Z,60.30
2018-11-10T07:05:27.601Z,64.80
2018-11-10T07:08:31.836Z,59.73
2018-11-10T07:11:36.116Z,62.57
2018-11-10T07:14:40.385Z,58.70
2018-11-10T07:17:44.654Z,60.37
2018-11-10T07:20:48.949Z,58.00
2018-11-10T07:23:53.214Z,54.00
2018-11-10T07:26:57.493Z,53.00
2018-11-10T07:30:01.740Z,48.60
2018-11-10T07:33:06.497Z,48.03
2018-11-10T07:36:10.748Z,46.37
2018-11-10T07:39:17.245Z,43.03
2018-11-10T07:42:23.295Z,44.90
2018-11-10T07:45:27.692Z,45.30
2018-11-10T07:48:31.926Z,37.97
2018-11-10T07:51:36.182Z,40.20
2018-11-10T07:54:40.488Z,39.53
2018-11-10T07:57:44.718Z,34.60
2018-11-10T08:00:49.026Z,35.43
2018-11-10T08:03:53.334Z,35.63
2018-11-10T08:06:57.608Z,32.67
2018-11-10T08:10:01.921Z,33.10
2018-11-10T08:13:06.170Z,29.43
2018-11-10T08:16:10.428Z,29.47
2018-11-10T08:19:14.688Z,30.23
2018-11-10T08:22:18.937Z,28.10
2018-11-10T08:25:23.165Z,29.37
2018-11-10T08:28:27.430Z,28.13
2018-11-10T08:31:31.707Z,29.03
2018-11-10T08:34:36.018Z,28.90
2018-11-10T08:37:40.272Z,27.37
2018-11-10T08:40:44.528Z,27.63
2018-11-10T08:43:48.817Z,24.77
2018-11-10T08:46:53.072Z,28.30
2018-11-10T08:49:57.341Z,25.70
2018-11-10T08:53:01.615Z,23.00
2018-11-10T08:56:06.533Z,26.70
2018-11-10T08:59:10.886Z,29.23
2018-11-10T09:02:15.106Z,24.20
2018-11-10T09:05:19.374Z,26.17
2018-11-10T09:08:23.618Z,23.83
2018-11-10T09:11:27.925Z,25.00
2018-11-10T09:14:32.192Z,27.73
2018-11-10T09:17:36.502Z,23.60
2018-11-10T09:20:40.796Z,26.17
2018-11-10T09:23:45.068Z,22.83
2018-11-10T09:26:49.312Z,25.10
2018-11-10T09:29:53.545Z,26.63
2018-11-10T09:32:57.827Z,29.17
2018-11-10T09:36:02.072Z,28.07
2018-11-10T09:39:08.206Z,30.50
2018-11-10T09:42:12.488Z,27.13
2018-11-10T09:45:17.917Z,26.43
2018-11-10T09:48:22.166Z,25.37
2018-11-10T09:51:26.422Z,31.10
2018-11-10T09:54:30.677Z,28.10
2018-11-10T09:57:35.028Z,32.67
2018-11-10T10:00:39.288Z,25.73
2018-11-10T10:03:43.564Z,27.03
2018-11-10T10:06:47.794Z,28.20
2018-11-10T10:09:52.082Z,24.50
2018-11-10T10:12:56.369Z,24.93
2018-11-10T10:16:00.656Z,24.00
2018-11-10T10:19:04.912Z,26.73
2018-11-10T10:22:09.195Z,25.67
2018-11-10T10:25:14.398Z,26.37
2018-11-10T10:28:18.679Z,25.63
2018-11-10T10:31:22.956Z,21.73
2018-11-10T10:34:27.336Z,28.53
2018-11-10T10:37:31.802Z,21.53
2018-11-10T10:40:36.037Z,23.37
2018-11-10T10:43:40.288Z,20.13
2018-11-10T10:46:44.518Z,19.83
2018-11-10T10:49:48.821Z,20.93
2018-11-10T10:52:53.175Z,21.43
2018-11-10T10:55:57.491Z,20.57
2018-11-10T10:59:01.723Z,19.47
2018-11-10T11:02:11.666Z,17.83
2018-11-10T11:05:19.529Z,23.73
2018-11-10T11:08:23.815Z,21.47
2018-11-10T11:11:28.077Z,19.60
2018-11-10T11:14:32.337Z,17.20
2018-11-10T11:17:36.634Z,16.50
2018-11-10T11:20:40.899Z,14.87
2018-11-10T11:23:45.150Z,17.73
2018-11-10T11:26:49.415Z,15.70
2018-11-10T11:29:53.716Z,17.83
2018-11-10T11:32:57.981Z,18.37
2018-11-10T11:36:02.257Z,18.67
2018-11-10T11:39:09.766Z,14.07
2018-11-10T11:42:14.039Z,15.43
2018-11-10T11:45:18.304Z,15.97
2018-11-10T11:48:22.586Z,15.43
2018-11-10T11:51:26.842Z,15.93
2018-11-10T11:54:31.118Z,13.77
2018-11-10T11:57:35.679Z,15.90
2018-11-10T12:00:39.911Z,14.40
2018-11-10T12:03:44.197Z,13.63
2018-11-10T12:06:48.469Z,13.30
2018-11-10T12:09:52.729Z,14.70
2018-11-10T12:12:57.368Z,15.20
2018-11-10T12:16:01.628Z,15.67
2018-11-10T12:19:07.165Z,12.63
2018-11-10T12:22:11.536Z,15.97
2018-11-10T12:25:15.779Z,12.23
2018-11-10T12:28:20.045Z,14.80
2018-11-10T12:31:24.407Z,14.13
2018-11-10T12:34:28.643Z,11.03
2018-11-10T12:37:32.948Z,16.40
2018-11-10T12:40:37.212Z,12.03
2018-11-10T12:43:41.483Z,11.70
2018-11-10T12:46:45.783Z,12.07
2018-11-10T12:49:50.100Z,11.53
2018-11-10T12:52:54.374Z,13.13
2018-11-10T12:55:58.654Z,9.73
2018-11-10T12:59:02.948Z,13.87
2018-11-10T13:02:07.242Z,11.27
2018-11-10T13:05:12.057Z,13.23
2018-11-10T13:08:16.444Z,12.10
2018-11-10T13:11:20.672Z,10.47
2018-11-10T13:14:24.968Z,12.87
2018-11-10T13:17:29.300Z,10.90
2018-11-10T13:20:33.496Z,12.73
2018-11-10T13:23:37.749Z,11.40
2018-11-10T13:26:42.020Z,12.50
2018-11-10T13:29:46.280Z,13.30
2018-11-10T13:32:50.601Z,10.20
2018-11-10T13:35:54.909Z,12.37
2018-11-10T13:38:59.211Z,11.17
2018-11-10T13:42:03.470Z,13.10
2018-11-10T13:45:10.953Z,9.97
2018-11-10T13:48:15.222Z,12.17
2018-11-10T13:51:19.664Z,13.53
2018-11-10T13:54:23.802Z,10.20
2018-11-10T13:57:28.402Z,11.00
2018-11-10T14:00:32.664Z,13.10
2018-11-10T14:03:36.969Z,12.33
2018-11-10T14:06:41.252Z,12.00
2018-11-10T14:09:45.504Z,10.57
2018-11-10T14:12:49.882Z,12.90
2018-11-10T14:15:54.086Z,12.57
2018-11-10T14:18:58.362Z,11.93
2018-11-10T14:22:02.861Z,11.50
2018-11-10T14:25:09.781Z,12.53
2018-11-10T14:28:14.047Z,11.20
2018-11-10T14:31:18.332Z,12.87
2018-11-10T14:34:22.600Z,13.87
2018-11-10T14:37:27.051Z,12.90
2018-11-10T14:40:31.326Z,12.10
2018-11-10T14:43:35.570Z,13.57
2018-11-10T14:46:39.824Z,12.37
2018-11-10T14:49:44.059Z,11.40
2018-11-10T14:52:48.488Z,15.87
2018-11-10T14:55:52.609Z,10.83
2018-11-10T14:58:56.881Z,13.40
2018-11-10T15:02:01.175Z,12.43
2018-11-10T15:05:06.067Z,12.00
2018-11-10T15:08:10.333Z,12.13
2018-11-10T15:11:14.574Z,14.60
2018-11-10T15:14:18.842Z,14.00
2018-11-10T15:17:23.123Z,17.70
2018-11-10T15:20:27.377Z,13.23
2018-11-10T15:23:31.593Z,13.50
2018-11-10T15:26:35.836Z,13.27
2018-11-10T15:29:40.117Z,14.87
2018-11-10T15:32:45.217Z,11.80
2018-11-10T15:35:49.491Z,11.90
2018-11-10T15:38:53.744Z,12.90
2018-11-10T15:41:58.000Z,14.07
2018-11-10T15:45:04.313Z,11.47
2018-11-10T15:48:08.564Z,11.23
2018-11-10T15:51:12.837Z,12.53
2018-11-10T15:54:17.074Z,13.47
2018-11-10T15:57:21.305Z,12.83
2018-11-10T16:00:25.531Z,13.13
2018-11-10T16:03:29.808Z,12.93
2018-11-10T16:06:34.198Z,13.57
2018-11-10T16:09:40.253Z,13.07
2018-11-10T16:12:44.517Z,14.40
2018-11-10T16:15:48.779Z,14.40
2018-11-10T16:18:53.165Z,12.73
2018-11-10T16:21:57.423Z,16.03
2018-11-10T16:25:01.706Z,13.33
2018-11-10T16:28:06.527Z,15.03
2018-11-10T16:31:10.799Z,14.80
2018-11-10T16:34:15.041Z,10.90
2018-11-10T16:37:19.364Z,14.43
2018-11-10T16:40:23.579Z,14.77
2018-11-10T16:43:27.813Z,13.13
2018-11-10T16:46:32.096Z,13.70
2018-11-10T16:49:36.411Z,13.30
2018-11-10T16:52:41.424Z,14.43
2018-11-10T16:55:45.682Z,18.80
2018-11-10T16:58:50.037Z,12.40
2018-11-10T17:01:54.321Z,15.20
2018-11-10T17:04:58.577Z,14.37
2018-11-10T17:08:02.857Z,15.27
2018-11-10T17:11:07.421Z,14.97
2018-11-10T17:14:12.214Z,14.57
2018-11-10T17:17:16.473Z,15.47
2018-11-10T17:20:20.737Z,15.57
2018-11-10T17:23:25.011Z,17.87
2018-11-10T17:26:29.289Z,14.77
2018-11-10T17:29:33.784Z,15.63
2018-11-10T17:32:38.073Z,19.77
2018-11-10T17:35:42.381Z,16.70
2018-11-10T17:38:46.701Z,18.00
2018-11-10T17:41:50.977Z,16.73
2018-11-10T17:44:55.261Z,19.40
2018-11-10T17:47:59.537Z,16.37
2018-11-10T17:51:03.865Z,22.03
2018-11-10T17:54:08.137Z,21.10
2018-11-10T17:57:12.402Z,19.40
2018-11-10T18:00:16.689Z,22.83
2018-11-10T18:03:21.111Z,21.47
2018-11-10T18:06:25.356Z,23.00
2018-11-10T18:09:29.629Z,22.83
2018-11-10T18:12:33.900Z,24.27
2018-11-10T18:15:38.185Z,22.53
2018-11-10T18:18:42.466Z,29.30
2018-11-10T18:21:46.761Z,26.73
2018-11-10T18:24:51.072Z,23.10
2018-11-10T18:27:55.364Z,23.03
2018-11-10T18:30:59.668Z,22.73
2018-11-10T18:34:03.944Z,25.20
2018-11-10T18:37:08.293Z,25.77
2018-11-10T18:40:12.552Z,23.97
2018-11-10T18:43:17.577Z,24.93
2018-11-10T18:46:21.830Z,23.93
2018-11-10T18:49:26.513Z,27.33
2018-11-10T18:52:30.770Z,25.50
2018-11-10T18:55:35.011Z,26.43
2018-11-10T18:58:39.295Z,28.50
2018-11-10T19:01:43.554Z,26.03
2018-11-10T19:04:47.803Z,27.57
2018-11-10T19:07:53.266Z,27.97
2018-11-10T19:10:57.571Z,27.77
2018-11-10T19:14:02.021Z,34.77
2018-11-10T19:17:06.397Z,26.77
2018-11-10T19:20:11.353Z,31.43
2018-11-10T19:23:15.648Z,33.03
2018-11-10T19:26:19.920Z,33.13
2018-11-10T19:29:24.180Z,30.50
2018-11-10T19:32:28.534Z,34.33
2018-11-10T19:35:32.816Z,30.07
2018-11-10T19:38:37.154Z,33.77
2018-11-10T19:41:41.609Z,29.33
2018-11-10T19:44:45.922Z,29.43
2018-11-10T19:47:50.197Z,30.20
2018-11-10T19:50:54.608Z,31.87
2018-11-10T19:53:58.746Z,31.00
2018-11-10T19:57:03.020Z,32.03
2018-11-10T20:00:13.773Z,33.07
2018-11-10T20:03:18.057Z,29.17
2018-11-10T20:06:22.324Z,30.43
2018-11-10T20:09:26.555Z,29.40
2018-11-10T20:12:30.955Z,33.17
2018-11-10T20:15:35.180Z,31.63
2018-11-10T20:18:39.472Z,32.63
2018-11-10T20:21:43.834Z,31.40
2018-11-10T20:24:48.127Z,33.33
2018-11-10T20:27:52.407Z,35.10
2018-11-10T20:30:56.722Z,35.60
2018-11-10T20:34:01.054Z,32.97
2018-11-10T20:37:05.510Z,34.17
2018-11-10T20:40:11.265Z,35.03
2018-11-10T20:43:15.545Z,34.57
2018-11-10T20:46:19.846Z,33.33
2018-11-10T20:49:24.107Z,31.83
2018-11-10T20:52:28.448Z,33.13
2018-11-10T20:55:32.737Z,35.17
2018-11-10T20:58:37.049Z,33.67
2018-11-10T21:01:41.418Z,34.47
2018-11-10T21:04:45.691Z,36.63
2018-11-10T21:07:49.980Z,32.87
2018-11-10T21:10:54.273Z,38.13
2018-11-10T21:13:58.555Z,32.70
2018-11-10T21:17:02.850Z,33.40
2018-11-10T21:20:08.687Z,34.40
2018-11-10T21:23:12.967Z,34.00
2018-11-10T21:26:17.259Z,35.43
2018-11-10T21:29:21.579Z,36.40
2018-11-10T21:32:25.861Z,29.47
2018-11-10T21:35:30.275Z,31.73
2018-11-10T21:38:34.472Z,34.23
2018-11-10T21:41:39.597Z,31.07
2018-11-10T21:44:43.902Z,34.33
2018-11-10T21:47:48.210Z,32.53
2018-11-10T21:50:52.484Z,29.67
2018-11-10T21:53:56.767Z,34.57
2018-11-10T21:57:01.027Z,34.73
2018-11-10T22:00:08.587Z,33.97
2018-11-10T22:03:12.886Z,31.27
2018-11-10T22:06:17.187Z,31.07
2018-11-10T22:09:21.680Z,31.93
2018-11-10T22:12:25.757Z,32.67
2018-11-10T22:15:30.056Z,32.33
2018-11-10T22:18:34.374Z,32.83
2018-11-10T22:21:38.659Z,31.87
2018-11-10T22:24:42.988Z,29.27
2018-11-10T22:27:48.630Z,34.70
2018-11-10T22:30:52.930Z,33.37
2018-11-10T22:33:57.208Z,28.17
2018-11-10T22:37:01.501Z,32.90
2018-11-10T22:40:08.192Z,30.33
2018-11-10T22:43:12.472Z,28.47
2018-11-10T22:46:17.244Z,31.07
2018-11-10T22:49:21.530Z,31.70
2018-11-10T22:52:25.982Z,31.00
2018-11-10T22:55:30.258Z,31.47
2018-11-10T22:58:34.579Z,31.43
2018-11-10T23:01:38.838Z,27.43
2018-11-10T23:04:43.124Z,27.67
2018-11-10T23:07:47.807Z,27.60
2018-11-10T23:10:52.103Z,32.30
2018-11-10T23:13:56.365Z,27.40
2018-11-10T23:17:00.724Z,30.93
2018-11-10T23:20:05.652Z,31.30
2018-11-10T23:23:09.943Z,25.27
2018-11-10T23:26:14.194Z,26.43
2018-11-10T23:29:18.466Z,29.93
2018-11-10T23:32:22.781Z,28.20
2018-11-10T23:35:27.048Z,24.60
2018-11-10T23:38:31.340Z,29.50
2018-11-10T23:41:35.596Z,27.77
2018-11-10T23:44:39.917Z,25.80
2018-11-10T23:47:44.179Z,27.50
2018-11-10T23:50:48.424Z,25.87
2018-11-10T23:53:52.726Z,24.70
2018-11-10T23:56:56.971Z,23.17
